Terminal Aerodrome Forecast
Issued by NWS Denver/Boulder, CO

Home | Current Version | Previous Version | Text Only | Print | Product List | Glossary On
Versions: 1 2 3 4 5 6 7 8 9 10 11 12 13 14 15 16 17 18 19 20 21 22 23 24 25 26 27 28 29 30 31 32 33 34 35 36 37 38 39 40 41 42 43 44 45 46
000
FTUS45 KBOU 290523
TAFDEN
TAF
KDEN 290523Z 2906/3012 04018G25KT 2SM -SN BR BKN007 OVC015
      TEMPO 2906/2909 3/4SM -SN BR BKN004 OVC007
     FM290900 03015KT 3SM -SN BR OVC008
     FM291500 02012KT 5SM -SN BR BKN009 OVC015
     FM291800 01014G22KT P6SM -SN BKN015 OVC024
     FM300000 35008KT P6SM SCT025 BKN040
      TEMPO 3000/3003 -SN BKN025
     FM300600 30007KT P6SM SCT040 BKN080=

USA.gov is the U.S. government's official web portal to all federal, state and local government web resources and services.